Time;durP1;ratioP1;P1;durP2;ratioP2;P2;SDS_P1;SDS_P2;PMS_P1;PMS_P2;Temp;Humidity;BMP_temperature;BMP_pressure;BME280_temperature;BME280_humidity;BME280_pressure;Samples;Min_cycle;Max_cycle;Signal;HPM_P1;HPM_P2
2021/09/05 00:00:32;;;;;;;7.43;6.57;;;14.20;99.90;;;;;;5050766;28;20445;-71
2021/09/05 00:02:58;;;;;;;8.02;6.55;;;14.20;99.90;;;;;;5051691;28;20108;-71
2021/09/05 00:05:24;;;;;;;9.77;7.05;;;14.20;99.90;;;;;;5043730;28;20112;-71
2021/09/05 00:07:49;;;;;;;8.07;6.47;;;14.10;99.90;;;;;;5031507;28;20025;-71
2021/09/05 00:10:15;;;;;;;9.10;6.75;;;14.10;99.90;;;;;;5032561;28;20060;-71
2021/09/05 00:12:42;;;;;;;9.57;6.50;;;14.10;99.90;;;;;;5047663;28;20429;-71
2021/09/05 00:15:10;;;;;;;9.05;6.40;;;14.00;99.90;;;;;;5050325;28;20079;-72
2021/09/05 00:17:36;;;;;;;8.73;6.70;;;14.00;99.90;;;;;;5051655;28;20033;-71
2021/09/05 00:20:03;;;;;;;8.27;6.43;;;13.90;99.90;;;;;;5050763;28;20025;-73
2021/09/05 00:22:29;;;;;;;10.18;6.65;;;13.90;99.90;;;;;;5051167;28;20112;-71
2021/09/05 00:24:55;;;;;;;9.88;7.00;;;13.90;99.90;;;;;;5051683;28;20100;-70
2021/09/05 00:27:20;;;;;;;10.15;6.78;;;13.90;99.90;;;;;;5050011;28;20029;-71
2021/09/05 00:29:46;;;;;;;9.93;6.40;;;13.90;99.90;;;;;;5051321;28;20029;-71
2021/09/05 00:32:11;;;;;;;8.65;6.10;;;13.90;99.90;;;;;;5050329;28;20036;-71
2021/09/05 00:34:37;;;;;;;8.07;6.10;;;13.80;99.90;;;;;;5050431;28;20069;-71
2021/09/05 00:37:03;;;;;;;7.85;6.35;;;13.80;99.90;;;;;;5050602;28;20099;-73
2021/09/05 00:39:29;;;;;;;6.90;6.18;;;13.80;99.90;;;;;;5050578;28;20029;-71
2021/09/05 00:41:55;;;;;;;8.75;6.85;;;13.80;99.90;;;;;;5050656;28;20053;-71
2021/09/05 00:44:20;;;;;;;9.55;6.78;;;13.80;99.90;;;;;;5050550;28;20098;-71
2021/09/05 00:46:46;;;;;;;7.43;5.65;;;13.80;99.90;;;;;;5050902;28;20028;-71
2021/09/05 00:49:12;;;;;;;8.02;6.10;;;13.80;99.90;;;;;;5050150;28;20040;-72
2021/09/05 00:51:40;;;;;;;7.80;6.07;;;13.70;99.90;;;;;;5053860;28;20032;-71
2021/09/05 00:54:08;;;;;;;7.95;6.60;;;13.70;99.90;;;;;;5053565;28;20470;-72
2021/09/05 00:56:36;;;;;;;7.68;6.20;;;13.70;99.90;;;;;;5054949;28;20029;-71
2021/09/05 00:59:07;;;;;;;8.02;6.13;;;13.70;99.90;;;;;;5054450;28;20100;-73
2021/09/05 01:01:35;;;;;;;8.05;6.15;;;13.60;99.90;;;;;;5055698;28;20028;-71
2021/09/05 01:04:01;;;;;;;7.90;6.53;;;13.60;99.90;;;;;;5055101;28;20028;-71
2021/09/05 01:06:27;;;;;;;11.73;7.13;;;13.60;99.90;;;;;;5053619;28;20035;-71
2021/09/05 01:08:53;;;;;;;9.30;6.85;;;13.60;99.90;;;;;;5054487;28;20095;-71
2021/09/05 01:11:19;;;;;;;9.85;6.60;;;13.60;99.90;;;;;;5053623;28;20025;-71
2021/09/05 01:13:45;;;;;;;11.52;7.18;;;13.60;99.90;;;;;;5053941;28;20486;-71
2021/09/05 01:16:27;;;;;;;12.20;6.95;;;13.60;99.90;;;;;;5053775;28;20079;-71
2021/09/05 01:18:53;;;;;;;8.82;6.53;;;13.60;99.90;;;;;;5054283;28;20031;-72
2021/09/05 01:21:20;;;;;;;8.60;6.95;;;13.60;99.90;;;;;;5053325;28;20025;-71
2021/09/05 01:23:46;;;;;;;11.10;6.47;;;13.60;99.90;;;;;;5054190;28;20103;-71
2021/09/05 01:26:12;;;;;;;9.50;6.82;;;13.50;99.90;;;;;;5053571;28;20109;-71
2021/09/05 01:28:41;;;;;;;11.82;7.75;;;13.50;99.90;;;;;;5053671;28;20051;-71
2021/09/05 01:31:07;;;;;;;10.73;6.88;;;13.60;99.90;;;;;;5053177;28;20029;-71
2021/09/05 01:33:33;;;;;;;10.13;7.40;;;13.60;99.90;;;;;;5054308;28;20099;-71
2021/09/05 01:35:58;;;;;;;10.52;7.07;;;13.50;99.90;;;;;;5053780;28;20489;-71
2021/09/05 01:38:24;;;;;;;12.38;8.52;;;13.50;99.90;;;;;;5053205;28;20033;-71
2021/09/05 01:40:50;;;;;;;8.57;6.72;;;13.40;99.90;;;;;;5053643;28;20029;-71
2021/09/05 01:43:15;;;;;;;12.13;7.13;;;13.50;99.90;;;;;;5052991;28;20021;-71
2021/09/05 01:45:41;;;;;;;8.70;6.75;;;13.50;99.90;;;;;;5053963;28;20036;-71
2021/09/05 01:48:07;;;;;;;9.77;7.35;;;13.50;99.90;;;;;;5053138;28;20140;-74
2021/09/05 01:50:32;;;;;;;10.73;7.85;;;13.50;99.90;;;;;;5053295;28;20118;-71
2021/09/05 01:52:58;;;;;;;13.23;7.97;;;13.50;99.90;;;;;;5053487;28;20036;-71
2021/09/05 01:55:24;;;;;;;13.27;8.07;;;13.40;99.90;;;;;;5051777;28;20029;-71
2021/09/05 01:57:49;;;;;;;10.30;7.18;;;13.40;99.90;;;;;;5053321;28;20467;-71
2021/09/05 02:00:15;;;;;;;10.57;7.32;;;13.40;99.90;;;;;;5052940;28;20374;-71
2021/09/05 02:02:41;;;;;;;11.75;7.00;;;13.30;99.90;;;;;;5052397;28;20144;-71
2021/09/05 02:05:07;;;;;;;11.07;7.72;;;13.30;99.90;;;;;;5052875;28;20158;-73
2021/09/05 02:07:33;;;;;;;10.70;8.30;;;13.30;99.90;;;;;;5053086;28;20060;-71
2021/09/05 02:09:58;;;;;;;10.82;7.90;;;13.20;99.90;;;;;;5053263;28;20478;-71
2021/09/05 02:12:24;;;;;;;9.65;7.47;;;13.20;99.90;;;;;;5052497;28;20608;-71
2021/09/05 02:14:50;;;;;;;11.63;7.85;;;13.20;99.90;;;;;;5052960;28;20119;-71
2021/09/05 02:17:15;;;;;;;10.30;7.50;;;13.20;99.90;;;;;;5052611;28;20029;-71
2021/09/05 02:19:41;;;;;;;9.57;7.70;;;13.10;99.90;;;;;;5052819;28;20076;-71
2021/09/05 02:22:07;;;;;;;9.73;7.55;;;13.20;99.90;;;;;;5052750;28;20025;-73
2021/09/05 02:24:32;;;;;;;11.60;7.88;;;13.20;99.90;;;;;;5052858;28;20040;-71
2021/09/05 02:26:58;;;;;;;9.23;7.28;;;13.10;99.90;;;;;;5051879;28;20463;-71
2021/09/05 02:29:24;;;;;;;11.57;8.07;;;13.10;99.90;;;;;;5051875;28;20102;-71
2021/09/05 02:31:52;;;;;;;12.13;8.20;;;13.00;99.90;;;;;;5053124;28;20031;-71
2021/09/05 02:34:18;;;;;;;11.35;7.97;;;13.10;99.90;;;;;;5051997;28;20124;-71
2021/09/05 02:36:45;;;;;;;10.73;7.50;;;13.10;99.90;;;;;;5052877;28;20086;-71
2021/09/05 02:39:11;;;;;;;10.77;7.93;;;13.00;99.90;;;;;;5051929;28;20017;-71
2021/09/05 02:41:36;;;;;;;10.68;8.32;;;13.00;99.90;;;;;;5052779;28;20358;-71
2021/09/05 02:44:02;;;;;;;10.00;7.80;;;13.00;99.90;;;;;;5053020;28;20521;-71
2021/09/05 02:46:27;;;;;;;11.98;8.25;;;13.00;99.90;;;;;;5051869;28;20109;-71
2021/09/05 02:48:53;;;;;;;11.15;8.63;;;13.00;99.90;;;;;;5052411;28;20025;-71
2021/09/05 02:51:19;;;;;;;11.57;8.20;;;13.00;99.90;;;;;;5051965;28;20066;-71
2021/09/05 02:53:44;;;;;;;12.23;8.15;;;13.00;99.90;;;;;;5052069;28;20037;-71
2021/09/05 02:56:10;;;;;;;11.70;8.23;;;13.00;99.90;;;;;;5051942;28;20110;-72
2021/09/05 02:58:35;;;;;;;12.98;8.40;;;13.00;99.90;;;;;;5052727;28;20558;-71
2021/09/05 03:01:01;;;;;;;11.82;8.63;;;12.90;99.90;;;;;;5052144;28;20033;-71
2021/09/05 03:03:27;;;;;;;10.18;8.05;;;12.90;99.90;;;;;;5050450;28;20561;-71
2021/09/05 03:05:52;;;;;;;12.00;8.43;;;12.90;99.90;;;;;;5052116;28;20036;-71
2021/09/05 03:08:19;;;;;;;11.00;8.27;;;12.80;99.90;;;;;;5051098;28;20082;-71
2021/09/05 03:10:45;;;;;;;11.27;7.75;;;12.80;99.90;;;;;;5052304;28;20032;-71
2021/09/05 03:13:10;;;;;;;9.20;6.97;;;12.70;99.90;;;;;;5040779;28;20036;-71
2021/09/05 03:15:36;;;;;;;9.80;7.85;;;12.70;99.90;;;;;;5032347;28;20033;-73
2021/09/05 03:18:01;;;;;;;11.38;8.63;;;12.70;99.90;;;;;;5040317;28;20025;-71
2021/09/05 03:20:27;;;;;;;12.75;7.93;;;12.60;99.90;;;;;;5051039;28;20033;-71
2021/09/05 03:22:52;;;;;;;9.30;7.57;;;12.60;99.90;;;;;;5052344;28;20363;-71
2021/09/05 03:25:18;;;;;;;9.95;7.47;;;12.60;99.90;;;;;;5051100;28;20025;-71
2021/09/05 03:27:44;;;;;;;12.00;8.73;;;12.60;99.90;;;;;;5051420;28;20040;-71
2021/09/05 03:30:10;;;;;;;12.20;8.05;;;12.50;99.90;;;;;;5051384;28;20520;-73
2021/09/05 03:32:36;;;;;;;10.85;8.32;;;12.50;99.90;;;;;;5051632;28;20029;-71
2021/09/05 03:35:02;;;;;;;11.35;8.98;;;12.50;99.90;;;;;;5052009;28;20025;-71
2021/09/05 03:37:27;;;;;;;14.63;9.10;;;12.50;99.90;;;;;;5047079;28;20608;-71
2021/09/05 03:39:53;;;;;;;9.82;7.82;;;12.50;99.90;;;;;;5051250;28;20033;-70
2021/09/05 03:42:19;;;;;;;12.88;9.20;;;12.50;99.90;;;;;;5050667;28;20122;-71
2021/09/05 03:44:44;;;;;;;12.07;9.10;;;12.50;99.90;;;;;;5051959;28;20475;-71
2021/09/05 03:47:10;;;;;;;10.57;8.32;;;12.50;99.90;;;;;;5050841;28;20120;-73
2021/09/05 03:49:36;;;;;;;12.00;8.90;;;12.50;99.90;;;;;;5051335;28;20025;-70
2021/09/05 03:52:02;;;;;;;10.00;8.02;;;12.40;99.90;;;;;;5051673;28;20477;-71
2021/09/05 03:54:27;;;;;;;11.75;8.13;;;12.40;99.90;;;;;;5050647;28;20045;-71
2021/09/05 03:56:53;;;;;;;11.50;8.75;;;12.40;99.90;;;;;;5051570;28;20529;-70
2021/09/05 03:59:18;;;;;;;12.35;9.27;;;12.40;99.90;;;;;;5050734;28;20075;-71
2021/09/05 04:01:44;;;;;;;13.40;9.45;;;12.40;99.90;;;;;;5051461;28;20061;-70
2021/09/05 04:04:10;;;;;;;10.20;8.43;;;12.40;99.90;;;;;;5049709;28;20461;-72
2021/09/05 04:06:35;;;;;;;10.98;8.50;;;12.40;99.90;;;;;;5050922;28;20036;-71
2021/09/05 04:09:08;;;;;;;14.63;8.98;;;12.40;99.90;;;;;;5051365;28;20482;-70
2021/09/05 04:11:35;;;;;;;15.63;8.85;;;12.30;99.90;;;;;;5050764;28;20528;-71
2021/09/05 04:14:00;;;;;;;10.85;7.75;;;12.30;99.90;;;;;;5051084;28;20090;-74
2021/09/05 04:16:26;;;;;;;9.30;7.78;;;12.30;99.90;;;;;;5050329;28;20413;-71
2021/09/05 04:18:52;;;;;;;12.95;8.43;;;12.30;99.90;;;;;;5051320;28;20029;-70
2021/09/05 04:21:17;;;;;;;13.85;8.00;;;12.30;99.90;;;;;;5050481;28;20021;-71
2021/09/05 04:23:43;;;;;;;9.35;7.65;;;12.20;99.90;;;;;;5051199;28;20040;-71
2021/09/05 04:26:08;;;;;;;13.70;9.07;;;12.20;99.90;;;;;;5052556;28;20111;-73
2021/09/05 04:28:34;;;;;;;10.57;8.50;;;12.20;99.90;;;;;;5055207;28;20037;-71
2021/09/05 04:31:00;;;;;;;10.40;8.23;;;12.20;99.90;;;;;;5055269;28;20441;-71
2021/09/05 04:33:25;;;;;;;12.18;10.02;;;12.20;99.90;;;;;;5054368;28;20059;-71
2021/09/05 04:35:51;;;;;;;14.82;9.73;;;12.20;99.90;;;;;;5055708;28;20081;-71
2021/09/05 04:38:17;;;;;;;13.05;9.88;;;12.20;99.90;;;;;;5053944;28;20029;-71
2021/09/05 04:40:42;;;;;;;15.85;10.52;;;12.20;99.90;;;;;;5053380;28;20059;-71
2021/09/05 04:43:08;;;;;;;14.40;9.75;;;12.20;99.90;;;;;;5055249;28;20138;-71
2021/09/05 04:45:34;;;;;;;12.52;9.50;;;12.20;99.90;;;;;;5054016;28;20068;-71
2021/09/05 04:47:59;;;;;;;13.68;9.85;;;12.20;99.90;;;;;;5054846;28;20057;-71
2021/09/05 04:50:25;;;;;;;13.23;9.48;;;12.20;99.90;;;;;;5054282;28;20040;-71
2021/09/05 04:52:51;;;;;;;15.07;10.20;;;12.20;99.90;;;;;;5054417;28;20028;-71
2021/09/05 04:55:17;;;;;;;15.20;9.73;;;12.20;99.90;;;;;;5052762;28;20047;-71
2021/09/05 04:57:43;;;;;;;13.15;8.77;;;12.20;99.90;;;;;;5053401;28;20029;-71
2021/09/05 05:00:09;;;;;;;10.60;8.77;;;12.20;99.90;;;;;;5054606;28;20029;-71
2021/09/05 05:02:35;;;;;;;14.38;10.10;;;12.20;99.90;;;;;;5053885;28;20562;-71
2021/09/05 05:05:01;;;;;;;11.70;9.60;;;12.20;99.90;;;;;;5055000;28;20041;-71
2021/09/05 05:07:26;;;;;;;13.00;9.90;;;12.30;99.90;;;;;;5053566;28;20470;-70
2021/09/05 05:09:54;;;;;;;12.35;9.65;;;12.20;99.90;;;;;;5054426;28;20025;-70
2021/09/05 05:12:20;;;;;;;14.68;10.00;;;12.30;99.90;;;;;;5053664;28;20086;-70
2021/09/05 05:14:46;;;;;;;12.73;9.52;;;12.40;99.90;;;;;;5054894;28;20068;-70
2021/09/05 05:17:12;;;;;;;12.23;9.27;;;12.30;99.90;;;;;;5053943;28;20053;-73
2021/09/05 05:19:37;;;;;;;11.95;9.75;;;12.40;99.90;;;;;;5052606;28;20047;-70
2021/09/05 05:22:04;;;;;;;14.85;10.07;;;12.50;99.90;;;;;;5053239;28;20390;-70
2021/09/05 05:24:30;;;;;;;16.13;10.65;;;12.50;99.90;;;;;;5051891;28;20033;-71
2021/09/05 05:26:56;;;;;;;13.43;9.73;;;12.60;99.90;;;;;;5052640;28;20165;-70
2021/09/05 05:29:22;;;;;;;14.02;9.68;;;12.70;99.90;;;;;;5052389;28;20025;-71
2021/09/05 05:31:48;;;;;;;14.13;9.75;;;12.70;99.90;;;;;;5052402;28;20458;-71
2021/09/05 05:34:13;;;;;;;13.88;9.85;;;12.80;99.90;;;;;;5052566;28;20496;-73
2021/09/05 05:36:39;;;;;;;12.75;10.10;;;12.80;99.90;;;;;;5051818;28;20029;-71
2021/09/05 05:39:05;;;;;;;13.32;9.90;;;12.90;99.90;;;;;;5052592;28;20029;-71
2021/09/05 05:41:30;;;;;;;12.27;10.13;;;13.00;99.90;;;;;;5051267;28;20045;-71
2021/09/05 05:43:56;;;;;;;14.10;9.60;;;13.10;99.90;;;;;;5052541;28;20033;-71
2021/09/05 05:46:23;;;;;;;12.43;8.60;;;13.10;99.90;;;;;;5052042;28;20064;-71
2021/09/05 05:48:48;;;;;;;12.55;8.93;;;13.20;99.90;;;;;;5052306;28;20036;-72
2021/09/05 05:51:14;;;;;;;11.43;8.27;;;13.30;99.90;;;;;;5051964;28;20033;-73
2021/09/05 05:53:40;;;;;;;12.68;8.35;;;13.40;99.90;;;;;;5052299;28;20402;-73
2021/09/05 05:56:05;;;;;;;13.73;9.40;;;13.40;99.90;;;;;;5052572;28;20031;-72
2021/09/05 05:58:31;;;;;;;13.05;9.70;;;13.50;99.90;;;;;;5051730;28;20106;-72
2021/09/05 06:00:57;;;;;;;18.38;11.07;;;13.60;99.90;;;;;;5052190;28;20060;-72
2021/09/05 06:03:22;;;;;;;12.48;9.43;;;13.60;99.90;;;;;;5051484;28;20112;-71
2021/09/05 06:05:48;;;;;;;13.50;10.30;;;13.80;99.90;;;;;;5052140;28;20025;-71
2021/09/05 06:08:14;;;;;;;15.50;10.10;;;13.80;99.90;;;;;;5050646;28;20502;-73
2021/09/05 06:10:40;;;;;;;12.45;9.98;;;13.90;99.90;;;;;;5052060;28;20055;-70
2021/09/05 06:13:06;;;;;;;14.73;10.63;;;14.00;99.90;;;;;;5051708;28;20036;-71
2021/09/05 06:15:31;;;;;;;14.15;10.63;;;14.10;99.90;;;;;;5051278;28;20043;-73
2021/09/05 06:17:57;;;;;;;12.85;9.65;;;14.20;99.90;;;;;;5052199;28;20790;-71
2021/09/05 06:20:23;;;;;;;14.07;9.93;;;14.20;99.90;;;;;;5051270;28;20013;-71
2021/09/05 06:22:48;;;;;;;13.05;10.30;;;14.30;99.90;;;;;;5052487;28;20355;-73
2021/09/05 06:25:14;;;;;;;12.75;9.68;;;14.50;99.90;;;;;;5052185;28;20394;-73
2021/09/05 06:27:41;;;;;;;14.25;10.23;;;14.50;99.90;;;;;;5052700;28;20082;-71
2021/09/05 06:30:07;;;;;;;13.93;10.48;;;14.60;99.90;;;;;;5050390;28;20030;-71
2021/09/05 06:32:32;;;;;;;17.35;10.65;;;14.70;99.90;;;;;;5046523;28;20029;-69
2021/09/05 06:34:58;;;;;;;18.33;10.98;;;14.90;99.90;;;;;;5051175;28;20371;-70
2021/09/05 06:37:24;;;;;;;13.38;10.65;;;14.90;99.90;;;;;;5052310;28;20048;-74
2021/09/05 06:39:50;;;;;;;15.60;10.73;;;15.00;99.90;;;;;;5052999;28;20025;-72
2021/09/05 06:42:15;;;;;;;17.95;10.50;;;15.10;99.90;;;;;;5051455;28;20041;-74
2021/09/05 06:44:41;;;;;;;15.43;10.18;;;15.20;99.90;;;;;;5052808;28;20135;-73
2021/09/05 06:47:07;;;;;;;14.63;10.52;;;15.30;99.90;;;;;;5046858;28;20056;-73
2021/09/05 06:49:33;;;;;;;15.95;10.50;;;15.30;99.90;;;;;;5052227;28;20130;-73
2021/09/05 06:51:58;;;;;;;13.05;10.05;;;15.50;99.90;;;;;;5051940;28;20030;-73
2021/09/05 06:54:24;;;;;;;12.70;10.13;;;15.60;99.90;;;;;;5050887;28;20045;-74
2021/09/05 06:56:50;;;;;;;12.88;9.98;;;15.70;99.90;;;;;;5050941;28;20039;-73
2021/09/05 06:59:15;;;;;;;11.82;8.98;;;15.80;99.90;;;;;;5051202;28;20102;-73
2021/09/05 07:01:41;;;;;;;12.35;9.50;;;15.80;99.90;;;;;;5051921;28;20369;-73
2021/09/05 07:04:07;;;;;;;11.82;9.43;;;15.90;99.90;;;;;;5052037;28;20036;-73
2021/09/05 07:06:33;;;;;;;12.00;9.25;;;16.10;99.90;;;;;;5050606;28;20587;-74
2021/09/05 07:08:59;;;;;;;14.10;9.98;;;16.20;99.90;;;;;;5051006;28;20048;-74
2021/09/05 07:11:24;;;;;;;14.13;9.52;;;16.30;99.90;;;;;;5051039;28;20036;-74
2021/09/05 07:13:50;;;;;;;13.45;8.85;;;16.40;99.90;;;;;;5051811;28;20475;-74
2021/09/05 07:16:16;;;;;;;16.63;8.75;;;16.60;99.90;;;;;;5051156;28;20506;-74
2021/09/05 07:18:41;;;;;;;11.30;8.80;;;16.60;99.90;;;;;;5051150;28;20112;-76
2021/09/05 07:21:07;;;;;;;14.55;9.02;;;16.80;99.90;;;;;;5051982;28;20023;-74
2021/09/05 07:23:33;;;;;;;11.30;8.63;;;16.90;99.90;;;;;;5051105;28;20143;-75
2021/09/05 07:26:02;;;;;;;13.25;8.60;;;17.00;99.90;;;;;;5050662;28;20427;-73
2021/09/05 07:28:29;;;;;;;12.45;8.98;;;17.00;99.90;;;;;;5050982;28;20528;-74
2021/09/05 07:30:55;;;;;;;11.23;8.93;;;17.10;99.90;;;;;;5050119;28;20037;-73
2021/09/05 07:33:20;;;;;;;13.88;8.82;;;17.10;99.90;;;;;;5050659;28;20029;-73
2021/09/05 07:35:46;;;;;;;10.73;7.47;;;17.20;99.90;;;;;;5051931;28;20055;-74
2021/09/05 07:38:11;;;;;;;10.65;7.63;;;17.20;99.90;;;;;;5051814;28;20024;-76
2021/09/05 07:40:37;;;;;;;10.18;7.88;;;17.30;99.90;;;;;;5050857;28;20025;-73
2021/09/05 07:43:03;;;;;;;10.18;6.97;;;17.50;99.90;;;;;;5051798;28;20402;-74
2021/09/05 07:45:28;;;;;;;8.15;7.05;;;17.60;99.90;;;;;;5048173;28;20033;-74
2021/09/05 07:47:54;;;;;;;11.55;8.50;;;17.70;99.90;;;;;;5051631;28;20791;-75
2021/09/05 07:50:19;;;;;;;11.82;8.45;;;17.90;99.90;;;;;;5050817;28;20075;-74
2021/09/05 07:52:45;;;;;;;9.23;7.35;;;18.10;99.90;;;;;;5051526;28;20074;-74
2021/09/05 07:55:11;;;;;;;10.32;7.85;;;18.40;99.90;;;;;;5051135;28;20032;-74
2021/09/05 07:57:36;;;;;;;10.57;7.65;;;18.50;99.90;;;;;;5050391;28;20592;-75
2021/09/05 08:00:04;;;;;;;11.75;7.95;;;18.60;99.90;;;;;;5050399;28;20060;-68
2021/09/05 08:02:29;;;;;;;10.40;7.47;;;18.70;99.90;;;;;;5050814;28;20025;-69
2021/09/05 08:04:55;;;;;;;9.63;7.05;;;18.80;99.90;;;;;;5051334;28;20386;-69
2021/09/05 08:07:20;;;;;;;10.80;7.97;;;18.90;99.90;;;;;;5050597;28;20390;-69
2021/09/05 08:09:46;;;;;;;9.18;7.38;;;18.90;99.90;;;;;;5051292;28;20040;-69
2021/09/05 08:12:12;;;;;;;11.57;7.82;;;19.00;99.90;;;;;;5050884;28;20025;-69
2021/09/05 08:14:38;;;;;;;8.90;7.70;;;19.10;99.90;;;;;;5050487;28;20659;-69
2021/09/05 08:17:04;;;;;;;9.40;7.35;;;19.20;99.90;;;;;;5050832;28;20063;-69
2021/09/05 08:19:29;;;;;;;13.35;7.20;;;19.40;99.90;;;;;;5050827;28;20061;-69
2021/09/05 08:21:55;;;;;;;10.63;7.45;;;19.50;99.90;;;;;;5051066;28;20108;-69
2021/09/05 08:24:21;;;;;;;11.75;7.80;;;19.70;99.90;;;;;;5050242;28;20389;-69
2021/09/05 08:26:46;;;;;;;12.13;7.47;;;19.80;99.90;;;;;;5051703;28;20497;-69
2021/09/05 08:29:12;;;;;;;10.88;7.50;;;19.80;99.90;;;;;;5051059;28;20454;-68
2021/09/05 08:31:38;;;;;;;9.43;7.43;;;19.90;99.90;;;;;;5050657;28;20055;-71
2021/09/05 08:34:05;;;;;;;10.60;7.55;;;20.00;99.90;;;;;;5050841;28;20043;-71
2021/09/05 08:36:31;;;;;;;10.43;7.20;;;20.00;99.90;;;;;;5049244;28;20067;-69
2021/09/05 08:38:58;;;;;;;14.23;7.20;;;20.10;99.90;;;;;;5050073;28;20048;-69
2021/09/05 08:41:25;;;;;;;8.95;7.22;;;20.20;99.90;;;;;;5049313;28;20114;-69
2021/09/05 08:43:51;;;;;;;10.80;7.22;;;20.40;99.90;;;;;;5050027;28;20037;-69
2021/09/05 08:46:17;;;;;;;11.55;7.20;;;20.40;99.90;;;;;;5049014;28;20032;-71
2021/09/05 08:48:44;;;;;;;9.15;6.88;;;20.60;99.90;;;;;;5049007;28;20021;-68
2021/09/05 08:51:11;;;;;;;10.27;6.55;;;20.70;99.80;;;;;;5050041;28;20029;-68
2021/09/05 08:53:37;;;;;;;8.77;6.68;;;20.70;99.20;;;;;;5048713;28;20695;-68
2021/09/05 08:56:03;;;;;;;9.18;6.68;;;20.90;98.60;;;;;;5049329;28;20059;-69
2021/09/05 08:58:28;;;;;;;7.30;6.18;;;20.90;98.70;;;;;;5048882;28;20064;-70
2021/09/05 09:00:54;;;;;;;10.55;6.00;;;21.10;98.10;;;;;;5049220;28;20051;-69
2021/09/05 09:03:25;;;;;;;7.88;6.20;;;21.20;97.70;;;;;;5049080;28;20036;-71
2021/09/05 09:05:53;;;;;;;7.30;6.22;;;21.30;97.80;;;;;;5049662;28;20115;-69
2021/09/05 09:08:20;;;;;;;9.05;6.00;;;21.50;97.00;;;;;;5049073;28;20100;-69
2021/09/05 09:10:50;;;;;;;7.93;5.88;;;21.60;96.60;;;;;;5049572;28;20025;-68
2021/09/05 09:13:26;;;;;;;7.07;5.60;;;21.70;96.00;;;;;;5052800;28;20091;-70
2021/09/05 09:15:53;;;;;;;7.05;5.63;;;21.90;94.10;;;;;;5052308;28;20041;-68
2021/09/05 09:18:29;;;;;;;8.90;6.60;;;22.00;93.90;;;;;;5049956;28;20055;-70
2021/09/05 09:20:56;;;;;;;11.05;5.80;;;22.20;93.20;;;;;;5053192;28;20044;-69
2021/09/05 09:23:31;;;;;;;8.68;5.75;;;22.40;92.70;;;;;;5052474;28;20074;-73
2021/09/05 09:26:00;;;;;;;6.63;6.00;;;22.50;91.50;;;;;;5052649;28;20100;-71
2021/09/05 09:28:28;;;;;;;7.30;6.18;;;22.70;90.00;;;;;;5052491;28;20378;-70
2021/09/05 09:30:59;;;;;;;7.10;5.55;;;22.80;89.20;;;;;;5052782;28;20024;-69
2021/09/05 09:33:28;;;;;;;8.65;5.82;;;22.90;87.60;;;;;;5050984;28;20036;-69
2021/09/05 09:35:58;;;;;;;6.72;5.43;;;23.10;85.70;;;;;;5053452;28;20037;-68
2021/09/05 09:38:24;;;;;;;7.93;6.40;;;23.20;85.40;;;;;;5052125;28;20048;-69
2021/09/05 09:40:50;;;;;;;7.72;5.88;;;23.20;84.10;;;;;;5052019;28;20163;-67
2021/09/05 09:43:22;;;;;;;8.52;5.72;;;23.30;82.40;;;;;;5052829;28;20032;-70
2021/09/05 09:45:50;;;;;;;9.63;6.38;;;23.50;81.40;;;;;;5052201;28;20078;-70
2021/09/05 09:48:23;;;;;;;6.15;5.22;;;23.70;80.70;;;;;;5050794;28;20029;-71
2021/09/05 09:50:49;;;;;;;7.07;5.75;;;23.90;79.60;;;;;;5054386;28;20094;-69
2021/09/05 09:53:15;;;;;;;7.50;5.40;;;24.10;78.20;;;;;;5053973;28;20541;-68
2021/09/05 09:55:41;;;;;;;6.95;6.03;;;24.40;76.30;;;;;;5051642;28;20040;-70
2021/09/05 09:58:07;;;;;;;4.97;4.47;;;24.60;74.50;;;;;;5052482;28;20039;-70
2021/09/05 10:00:33;;;;;;;6.40;5.25;;;24.80;72.80;;;;;;5051503;28;20128;-70
2021/09/05 10:03:00;;;;;;;7.55;5.50;;;24.90;73.90;;;;;;5050637;28;20032;-71
2021/09/05 10:05:30;;;;;;;5.97;4.90;;;25.00;72.10;;;;;;5051522;28;20056;-70
2021/09/05 10:07:56;;;;;;;5.63;5.00;;;25.10;71.80;;;;;;5051981;28;20094;-72
2021/09/05 10:10:24;;;;;;;7.82;5.40;;;25.10;69.40;;;;;;5051328;28;20095;-69
2021/09/05 10:12:51;;;;;;;5.72;4.68;;;25.10;69.30;;;;;;5051815;28;20086;-71
2021/09/05 10:15:18;;;;;;;7.05;4.65;;;25.10;69.10;;;;;;5050761;28;20029;-73
2021/09/05 10:17:45;;;;;;;5.47;4.07;;;25.10;69.00;;;;;;5051504;28;20134;-71
2021/09/05 10:20:12;;;;;;;5.50;4.90;;;25.10;68.30;;;;;;5053016;28;20025;-75
2021/09/05 10:22:38;;;;;;;4.88;4.38;;;25.30;67.30;;;;;;5051387;28;20021;-76
2021/09/05 10:25:05;;;;;;;6.43;4.80;;;25.50;67.80;;;;;;5052682;28;20064;-72
2021/09/05 10:27:36;;;;;;;5.28;4.72;;;25.50;65.40;;;;;;5051439;28;20120;-75
2021/09/05 10:30:08;;;;;;;6.55;4.70;;;25.50;64.50;;;;;;5052365;28;20120;-72
2021/09/05 10:32:55;;;;;;;5.07;4.47;;;25.50;64.80;;;;;;5051484;28;20032;-72
2021/09/05 10:35:30;;;;;;;4.53;3.88;;;25.60;64.60;;;;;;5051785;28;20122;-71
2021/09/05 10:38:08;;;;;;;8.32;4.72;;;25.70;64.50;;;;;;5052276;28;20033;-72
2021/09/05 10:40:40;;;;;;;6.18;4.53;;;26.10;63.30;;;;;;5051437;28;20037;-73
2021/09/05 10:43:06;;;;;;;6.55;4.60;;;26.20;60.80;;;;;;5052697;28;20033;-72
2021/09/05 10:45:34;;;;;;;8.85;4.75;;;26.30;60.10;;;;;;5051658;28;20134;-72
2021/09/05 10:48:00;;;;;;;5.15;4.43;;;26.30;60.50;;;;;;5051967;28;20028;-72
2021/09/05 10:50:39;;;;;;;4.60;4.10;;;26.30;59.60;;;;;;5051803;28;20387;-72
2021/09/05 10:53:16;;;;;;;4.88;4.07;;;26.40;58.30;;;;;;5052320;28;20038;-71
2021/09/05 10:56:08;;;;;;;5.68;4.38;;;26.40;58.90;;;;;;5051517;28;20120;-71
2021/09/05 10:58:58;;;;;;;5.03;4.45;;;26.60;59.00;;;;;;5051030;28;20048;-69
2021/09/05 11:01:34;;;;;;;5.68;4.30;;;26.80;59.10;;;;;;5048874;28;20041;-70
2021/09/05 11:04:15;;;;;;;5.97;4.32;;;;;;;;;;5051615;28;20037;-69
2021/09/05 11:07:00;;;;;;;4.78;4.00;;;27.20;56.20;;;;;;5051259;28;20028;-77
2021/09/05 11:09:25;;;;;;;4.75;4.30;;;27.30;56.40;;;;;;5050462;28;21000;-73
2021/09/05 11:11:56;;;;;;;10.30;6.85;;;27.50;56.30;;;;;;5050777;28;20112;-70
2021/09/05 11:14:47;;;;;;;5.70;4.85;;;27.40;55.40;;;;;;5047550;28;20040;-70
2021/09/05 11:17:13;;;;;;;6.68;4.18;;;27.30;55.60;;;;;;5047191;28;20437;-69
2021/09/05 11:19:46;;;;;;;4.22;3.63;;;27.10;55.30;;;;;;5050520;28;20029;-69
2021/09/05 11:22:24;;;;;;;5.80;4.70;;;27.00;56.10;;;;;;5051446;28;20041;-68
2021/09/05 11:25:08;;;;;;;5.80;4.50;;;27.10;55.90;;;;;;5051573;28;20120;-68
2021/09/05 11:27:35;;;;;;;4.88;4.43;;;27.20;55.50;;;;;;5050514;28;20048;-68
2021/09/05 11:30:03;;;;;;;4.40;4.00;;;27.50;54.50;;;;;;5050492;28;20076;-69
2021/09/05 11:32:29;;;;;;;5.90;4.68;;;27.80;53.10;;;;;;5050587;28;20033;-68
2021/09/05 11:34:56;;;;;;;4.07;3.67;;;27.90;52.70;;;;;;5050748;28;20036;-67
2021/09/05 11:37:30;;;;;;;4.80;4.05;;;27.90;52.40;;;;;;5050625;28;20029;-74
2021/09/05 11:40:02;;;;;;;4.80;4.20;;;28.00;52.00;;;;;;5051111;28;20132;-71
2021/09/05 11:42:27;;;;;;;4.28;3.88;;;28.10;50.90;;;;;;5049460;28;20487;-71
2021/09/05 11:45:04;;;;;;;4.32;3.85;;;28.20;50.70;;;;;;5050598;28;20037;-71
2021/09/05 11:47:30;;;;;;;4.70;3.55;;;28.20;51.10;;;;;;5049200;28;20057;-71
2021/09/05 11:49:57;;;;;;;5.20;4.22;;;28.30;51.30;;;;;;5050814;28;20056;-71
2021/09/05 11:52:25;;;;;;;5.07;4.25;;;28.50;50.60;;;;;;5050508;28;20041;-72
2021/09/05 11:55:05;;;;;;;4.28;3.70;;;28.80;49.60;;;;;;5049790;28;20405;-72
2021/09/05 11:57:32;;;;;;;3.90;3.60;;;28.80;49.30;;;;;;5050672;28;20044;-72
2021/09/05 12:00:01;;;;;;;5.35;4.38;;;28.80;50.20;;;;;;5051198;28;20041;-72
2021/09/05 12:02:31;;;;;;;5.93;5.35;;;29.00;49.40;;;;;;5050555;28;20059;-72
2021/09/05 12:04:57;;;;;;;9.25;8.35;;;29.20;49.30;;;;;;5050628;28;20116;-72
2021/09/05 12:07:24;;;;;;;11.70;9.82;;;29.30;48.70;;;;;;5050428;28;20064;-74
2021/09/05 12:10:13;;;;;;;6.63;5.97;;;29.40;48.40;;;;;;5051124;28;20544;-70
2021/09/05 12:12:40;;;;;;;5.25;4.75;;;29.30;48.20;;;;;;5049948;28;20483;-69
2021/09/05 12:15:20;;;;;;;7.80;4.65;;;29.30;48.00;;;;;;5050482;28;20032;-72
2021/09/05 12:17:48;;;;;;;4.95;4.35;;;29.40;48.40;;;;;;5046996;28;20033;-71
2021/09/05 12:20:16;;;;;;;6.75;5.38;;;29.40;48.70;;;;;;5050447;28;20032;-71
2021/09/05 12:22:44;;;;;;;5.20;4.68;;;29.50;48.90;;;;;;5049871;28;20516;-71
2021/09/05 12:25:31;;;;;;;4.95;4.45;;;29.30;58.90;;;;;;5050525;28;20478;-71
2021/09/05 12:28:04;;;;;;;7.15;4.13;;;29.90;46.70;;;;;;5050312;28;20537;-70
2021/09/05 12:30:35;;;;;;;4.53;3.97;;;30.00;46.60;;;;;;5049719;28;20028;-72
2021/09/05 12:33:14;;;;;;;8.30;7.40;;;30.10;47.30;;;;;;5049083;28;20040;-70
2021/09/05 12:35:51;;;;;;;4.95;4.45;;;30.00;47.30;;;;;;5048219;28;20025;-71
2021/09/05 12:38:31;;;;;;;4.20;3.85;;;29.80;46.80;;;;;;5048379;28;20029;-72
2021/09/05 12:41:14;;;;;;;5.05;4.18;;;29.70;46.60;;;;;;5050409;28;20699;-71